createdAt,value
2019-05-03T00:00:18.839Z,9.67
2019-05-03T00:02:56.645Z,9.58
2019-05-03T00:05:34.243Z,9.51
2019-05-03T00:08:05.105Z,9.58
2019-05-03T00:10:36.267Z,9.54
2019-05-03T00:13:06.199Z,9.48
2019-05-03T00:15:40.427Z,9.51
2019-05-03T00:18:11.693Z,9.54
2019-05-03T00:20:42.049Z,9.54
2019-05-03T00:23:12.211Z,9.48
2019-05-03T00:25:42.111Z,9.47
2019-05-03T00:28:13.310Z,9.42
2019-05-03T00:30:43.305Z,9.32
2019-05-03T00:33:13.243Z,9.32
2019-05-03T00:35:53.601Z,9.33
2019-05-03T00:38:23.756Z,9.25
2019-05-03T00:40:53.687Z,9.22
2019-05-03T00:43:23.621Z,9.23
2019-05-03T00:45:53.551Z,9.15
2019-05-03T00:48:23.437Z,9.10
2019-05-03T00:50:53.415Z,9.01
2019-05-03T00:53:23.351Z,8.88
2019-05-03T00:55:54.208Z,8.82
2019-05-03T00:58:24.252Z,8.79
2019-05-03T01:00:54.185Z,8.75
2019-05-03T01:03:24.114Z,8.87
2019-05-03T01:05:54.052Z,8.75
2019-05-03T01:08:23.985Z,8.76
2019-05-03T01:10:53.919Z,8.65
2019-05-03T01:16:02.927Z,8.76
2019-05-03T01:18:32.930Z,8.68
2019-05-03T01:21:02.971Z,8.74
2019-05-03T01:23:32.917Z,8.81
2019-05-03T01:26:02.798Z,8.83
2019-05-03T01:28:32.663Z,8.86
2019-05-03T01:31:02.755Z,8.84
2019-05-03T01:33:32.742Z,8.84
2019-05-03T01:36:02.926Z,8.81
2019-05-03T01:38:32.921Z,8.89
2019-05-03T01:41:02.746Z,8.82
2019-05-03T01:43:32.647Z,8.78
2019-05-03T01:46:02.868Z,8.84
2019-05-03T01:48:34.500Z,8.92
2019-05-03T01:51:23.972Z,8.88
2019-05-03T01:53:53.868Z,8.85
2019-05-03T01:56:23.740Z,8.86
2019-05-03T01:58:53.680Z,8.94
2019-05-03T02:01:27.900Z,8.97
2019-05-03T02:04:05.311Z,9.03
2019-05-03T02:06:35.243Z,9.01
2019-05-03T02:09:07.655Z,8.94
2019-05-03T02:11:37.667Z,9.06
2019-05-03T02:14:07.499Z,9.17
2019-05-03T02:16:37.426Z,9.14
2019-05-03T02:19:07.368Z,9.09
2019-05-03T02:21:37.302Z,9.19
2019-05-03T02:24:08.361Z,9.25
2019-05-03T02:26:38.294Z,9.26
2019-05-03T02:29:08.184Z,9.26
2019-05-03T02:31:38.168Z,9.37
2019-05-03T02:34:08.302Z,9.46
2019-05-03T02:36:38.243Z,9.49
2019-05-03T02:39:13.321Z,9.50
2019-05-03T02:41:45.242Z,9.51
2019-05-03T02:44:15.849Z,9.47
2019-05-03T02:46:56.594Z,9.36
2019-05-03T02:49:27.373Z,9.36
2019-05-03T02:51:57.181Z,9.37
2019-05-03T02:54:27.347Z,9.48
2019-05-03T02:56:57.318Z,9.46
2019-05-03T02:59:27.282Z,9.49
2019-05-03T03:01:57.330Z,9.49
2019-05-03T03:04:27.532Z,9.53
2019-05-03T03:06:58.523Z,9.59
2019-05-03T03:09:29.851Z,9.68
2019-05-03T03:11:59.797Z,9.74
2019-05-03T03:14:32.830Z,9.82
2019-05-03T03:17:06.681Z,9.89
2019-05-03T03:19:38.427Z,9.95
2019-05-03T03:22:11.180Z,9.96
2019-05-03T03:24:45.905Z,9.95
2019-05-03T03:27:18.973Z,9.97
2019-05-03T03:29:51.881Z,9.95
2019-05-03T03:32:29.079Z,9.96
2019-05-03T03:35:11.605Z,9.96
2019-05-03T03:37:40.799Z,9.98
2019-05-03T03:40:13.205Z,9.94
2019-05-03T03:42:44.989Z,9.95
2019-05-03T03:45:16.713Z,9.98
2019-05-03T03:47:50.150Z,10.06
2019-05-03T03:50:20.083Z,10.07
2019-05-03T03:52:52.589Z,10.20
2019-05-03T03:55:26.487Z,10.34
2019-05-03T03:57:56.085Z,10.37
2019-05-03T04:00:26.103Z,10.39
2019-05-03T04:02:56.220Z,10.45
2019-05-03T04:05:26.552Z,10.49
2019-05-03T04:07:56.689Z,10.65
2019-05-03T04:10:27.419Z,10.71
2019-05-03T04:12:58.296Z,10.82
2019-05-03T04:15:37.055Z,10.94
2019-05-03T04:18:25.677Z,11.10
2019-05-03T04:20:56.461Z,11.27
2019-05-03T04:23:26.411Z,11.29
2019-05-03T04:25:56.977Z,11.48
2019-05-03T04:28:27.531Z,11.58
2019-05-03T04:30:57.399Z,11.64
2019-05-03T04:33:27.452Z,11.83
2019-05-03T04:35:57.376Z,11.99
2019-05-03T04:38:27.303Z,12.07
2019-05-03T04:40:57.240Z,12.08
2019-05-03T04:43:27.281Z,12.36
2019-05-03T04:46:16.402Z,12.56
2019-05-03T04:48:45.870Z,12.67
2019-05-03T04:51:16.653Z,12.62
2019-05-03T04:53:48.489Z,12.74
2019-05-03T04:56:18.432Z,12.69
2019-05-03T04:58:48.576Z,12.78
2019-05-03T05:01:18.502Z,12.88
2019-05-03T05:03:48.539Z,13.16
2019-05-03T05:06:18.465Z,13.34
2019-05-03T05:08:48.400Z,13.44
2019-05-03T05:11:18.345Z,13.52
2019-05-03T05:13:48.585Z,13.79
2019-05-03T05:16:18.413Z,14.06
2019-05-03T05:18:50.000Z,14.04
2019-05-03T05:21:27.190Z,13.85
2019-05-03T05:24:01.640Z,13.89
2019-05-03T05:26:39.331Z,14.19
2019-05-03T05:29:10.793Z,14.36
2019-05-03T05:31:40.726Z,14.46
2019-05-03T05:34:10.632Z,14.45
2019-05-03T05:36:40.599Z,14.54
2019-05-03T05:39:15.177Z,14.64
2019-05-03T05:41:45.093Z,14.69
2019-05-03T05:44:15.112Z,14.86
2019-05-03T05:46:54.275Z,14.80
2019-05-03T05:49:44.249Z,14.94
2019-05-03T05:52:15.492Z,15.19
2019-05-03T05:54:47.173Z,15.33
2019-05-03T05:57:25.626Z,15.37
2019-05-03T06:00:00.324Z,15.73
2019-05-03T06:02:30.375Z,15.82
2019-05-03T06:05:00.306Z,16.18
2019-05-03T06:07:31.872Z,16.10
2019-05-03T06:10:09.174Z,16.20
2019-05-03T06:12:40.746Z,16.50
2019-05-03T06:15:12.467Z,17.28
2019-05-03T06:17:53.091Z,17.66
2019-05-03T06:20:27.247Z,17.26
2019-05-03T06:22:58.675Z,17.20
2019-05-03T06:25:30.255Z,16.89
2019-05-03T06:28:14.329Z,17.97
2019-05-03T06:30:39.318Z,18.45
2019-05-03T06:33:10.304Z,18.66
2019-05-03T06:35:40.378Z,19.00
2019-05-03T06:38:10.259Z,18.92
2019-05-03T06:40:40.216Z,18.49
2019-05-03T06:43:12.901Z,18.46
2019-05-03T06:45:46.624Z,18.73
2019-05-03T06:48:17.555Z,18.80
2019-05-03T06:50:46.990Z,19.33
2019-05-03T06:53:16.928Z,20.11
2019-05-03T06:55:48.435Z,21.45
2019-05-03T06:58:30.348Z,22.08
2019-05-03T07:00:56.138Z,22.56
2019-05-03T07:03:28.223Z,23.28
2019-05-03T07:06:16.257Z,24.19
2019-05-03T07:08:54.951Z,24.68
2019-05-03T07:11:24.923Z,26.34
2019-05-03T07:13:55.985Z,25.92
2019-05-03T07:16:25.918Z,24.82
2019-05-03T07:18:58.444Z,25.33
2019-05-03T07:21:27.425Z,24.52
2019-05-03T07:23:57.368Z,25.48
2019-05-03T07:26:27.400Z,24.09
2019-05-03T07:28:57.330Z,23.27
2019-05-03T07:31:27.261Z,23.66
2019-05-03T07:33:57.211Z,24.70
2019-05-03T07:36:28.319Z,26.34
2019-05-03T07:38:59.483Z,29.57
2019-05-03T07:41:29.460Z,28.87
2019-05-03T07:43:59.393Z,26.60
2019-05-03T07:46:31.775Z,25.79
2019-05-03T07:49:01.008Z,26.64
2019-05-03T07:51:31.039Z,24.25
2019-05-03T07:54:00.972Z,23.03
2019-05-03T07:56:35.676Z,23.76
2019-05-03T07:59:07.193Z,23.87
2019-05-03T08:01:41.704Z,25.03
2019-05-03T08:04:11.666Z,23.32
2019-05-03T08:06:41.503Z,25.26
2019-05-03T08:09:11.522Z,27.20
2019-05-03T08:11:41.455Z,29.49
2019-05-03T08:14:11.424Z,32.02
2019-05-03T08:16:41.441Z,33.31
2019-05-03T08:19:11.318Z,30.81
2019-05-03T08:21:41.203Z,27.48
2019-05-03T08:24:11.392Z,23.78
2019-05-03T08:26:41.273Z,22.38
2019-05-03T08:29:16.160Z,22.46
2019-05-03T08:31:45.522Z,23.77
2019-05-03T08:34:34.780Z,23.54
2019-05-03T08:37:06.615Z,23.40
2019-05-03T08:39:37.435Z,24.04
2019-05-03T08:42:09.112Z,23.83
2019-05-03T08:44:39.042Z,24.93
2019-05-03T08:47:08.984Z,24.25
2019-05-03T08:49:38.915Z,23.20
2019-05-03T08:52:08.853Z,23.02
2019-05-03T08:54:38.890Z,22.38
2019-05-03T08:57:08.816Z,23.01
2019-05-03T08:59:38.772Z,23.98
2019-05-03T09:02:17.771Z,23.47
2019-05-03T09:04:43.033Z,24.62
2019-05-03T09:07:11.937Z,24.77
2019-05-03T09:09:55.579Z,23.16
2019-05-03T09:12:25.413Z,22.57
2019-05-03T09:14:56.260Z,24.08
2019-05-03T09:17:26.409Z,24.30
2019-05-03T09:19:56.403Z,22.29
2019-05-03T09:22:26.478Z,21.31
2019-05-03T09:24:56.416Z,20.45
2019-05-03T09:27:26.551Z,20.83
2019-05-03T09:29:56.492Z,21.34
2019-05-03T09:32:26.625Z,21.32
2019-05-03T09:34:56.556Z,21.89
2019-05-03T09:37:26.497Z,21.37
2019-05-03T09:39:56.432Z,21.38
2019-05-03T09:42:26.268Z,22.12
2019-05-03T09:44:57.357Z,25.81
2019-05-03T09:47:27.357Z,27.63
2019-05-03T09:49:57.300Z,29.97
2019-05-03T09:52:27.443Z,32.51
2019-05-03T09:54:58.932Z,35.22
2019-05-03T09:57:28.862Z,37.32
2019-05-03T10:00:00.149Z,38.39
2019-05-03T10:02:30.356Z,34.73
2019-05-03T10:05:00.286Z,37.81
2019-05-03T10:07:30.114Z,32.84
2019-05-03T10:10:00.014Z,26.82
2019-05-03T10:12:29.957Z,30.06
2019-05-03T10:14:59.931Z,29.63
2019-05-03T10:17:31.488Z,32.44
2019-05-03T10:20:01.424Z,29.16
2019-05-03T10:22:31.362Z,25.92
2019-05-03T10:25:01.291Z,24.11
2019-05-03T10:27:34.710Z,24.13
2019-05-03T10:30:12.445Z,27.52
2019-05-03T10:32:39.374Z,34.37
2019-05-03T10:35:15.151Z,35.82
2019-05-03T10:37:45.450Z,37.45
2019-05-03T10:40:18.400Z,34.93
2019-05-03T10:42:48.427Z,40.74
2019-05-03T10:45:18.469Z,39.84
2019-05-03T10:47:47.707Z,33.50
2019-05-03T10:50:17.720Z,28.25
2019-05-03T10:52:48.510Z,25.83
2019-05-03T10:55:18.208Z,24.10
2019-05-03T10:57:49.779Z,22.71
2019-05-03T11:00:42.415Z,23.13
2019-05-03T11:02:57.413Z,23.71
2019-05-03T11:05:27.363Z,24.33
2019-05-03T11:07:57.395Z,23.97
2019-05-03T11:10:27.843Z,24.15
2019-05-03T11:12:57.087Z,24.98
2019-05-03T11:15:26.988Z,26.01
2019-05-03T11:17:56.921Z,26.42
2019-05-03T11:20:37.512Z,28.52
2019-05-03T11:23:10.061Z,33.08
2019-05-03T11:25:40.026Z,38.74
2019-05-03T11:28:11.596Z,35.69
2019-05-03T11:30:53.470Z,37.62
2019-05-03T11:33:21.692Z,41.05
2019-05-03T11:35:55.132Z,44.84
2019-05-03T11:38:29.329Z,43.25
2019-05-03T11:40:59.281Z,47.25
2019-05-03T11:43:28.514Z,35.61
2019-05-03T11:45:58.427Z,28.92
2019-05-03T11:48:27.671Z,26.72
2019-05-03T11:50:57.577Z,27.66
2019-05-03T11:53:27.514Z,29.42
2019-05-03T11:55:57.434Z,26.50
2019-05-03T11:58:27.465Z,23.70
2019-05-03T12:01:15.374Z,22.29
2019-05-03T12:03:40.489Z,21.96
2019-05-03T12:06:10.486Z,21.75
2019-05-03T12:08:40.416Z,21.46
2019-05-03T12:11:10.451Z,22.18
2019-05-03T12:13:40.384Z,25.37
2019-05-03T12:16:17.032Z,30.99
2019-05-03T12:18:50.287Z,32.59
2019-05-03T12:21:17.153Z,33.08
2019-05-03T12:23:46.245Z,33.97
2019-05-03T12:26:17.614Z,31.14
2019-05-03T12:28:55.537Z,29.21
2019-05-03T12:31:36.569Z,26.35
2019-05-03T12:33:57.250Z,25.46
2019-05-03T12:36:27.284Z,24.25
2019-05-03T12:38:57.238Z,26.34
2019-05-03T12:41:28.792Z,31.34
2019-05-03T12:43:58.938Z,26.85
2019-05-03T12:46:28.977Z,24.40
2019-05-03T12:48:59.013Z,23.01
2019-05-03T12:51:28.912Z,22.61
2019-05-03T12:53:58.888Z,22.68
2019-05-03T12:56:32.699Z,22.73
2019-05-03T12:59:06.031Z,26.61
2019-05-03T13:01:41.599Z,35.03
2019-05-03T13:04:16.508Z,33.39
2019-05-03T13:06:47.985Z,30.94
2019-05-03T13:09:17.918Z,29.32
2019-05-03T13:11:54.769Z,28.40
2019-05-03T13:14:22.206Z,30.91
2019-05-03T13:16:52.222Z,28.91
2019-05-03T13:19:22.263Z,27.81
2019-05-03T13:21:55.429Z,26.81
2019-05-03T13:24:26.012Z,26.08
2019-05-03T13:26:56.165Z,25.50
2019-05-03T13:29:28.775Z,25.36
2019-05-03T13:32:02.100Z,26.53
2019-05-03T13:34:30.455Z,28.95
2019-05-03T13:37:01.209Z,28.24
2019-05-03T13:39:32.685Z,27.04
2019-05-03T13:42:03.056Z,26.44
2019-05-03T13:44:33.080Z,25.78
2019-05-03T13:47:04.525Z,24.97
2019-05-03T13:49:35.646Z,23.76
2019-05-03T13:52:05.622Z,22.89
2019-05-03T13:54:35.617Z,22.92
2019-05-03T13:57:05.807Z,23.99
2019-05-03T13:59:35.740Z,25.24
2019-05-03T14:02:15.047Z,25.10
2019-05-03T14:04:49.472Z,24.69
2019-05-03T14:07:10.153Z,26.82
2019-05-03T14:09:40.086Z,30.06
2019-05-03T14:12:10.217Z,31.56
2019-05-03T14:14:56.387Z,30.51
2019-05-03T14:17:29.290Z,28.25
2019-05-03T14:20:14.835Z,26.37
2019-05-03T14:22:46.573Z,26.37
2019-05-03T14:25:16.511Z,29.09
2019-05-03T14:27:48.409Z,29.51
2019-05-03T14:30:20.469Z,29.12
2019-05-03T14:32:52.038Z,29.09
2019-05-03T14:35:21.882Z,28.49
2019-05-03T14:37:54.926Z,27.90
2019-05-03T14:40:25.216Z,28.00
2019-05-03T14:42:55.570Z,27.71
2019-05-03T14:45:25.922Z,27.56
2019-05-03T14:47:57.864Z,27.29
2019-05-03T14:50:27.834Z,26.22
2019-05-03T14:52:57.759Z,25.41
2019-05-03T14:55:29.251Z,26.37
2019-05-03T14:58:03.440Z,26.89
2019-05-03T15:00:35.694Z,26.72
2019-05-03T15:03:09.879Z,26.11
2019-05-03T15:05:41.045Z,24.88
2019-05-03T15:08:14.889Z,24.96
2019-05-03T15:10:45.662Z,25.45
2019-05-03T15:13:18.612Z,25.12
2019-05-03T15:15:48.659Z,24.71
2019-05-03T15:18:18.694Z,24.41
2019-05-03T15:20:50.693Z,23.43
2019-05-03T15:23:20.808Z,22.52
2019-05-03T15:25:52.129Z,22.09
2019-05-03T15:28:25.124Z,21.89
2019-05-03T15:30:55.493Z,21.85
2019-05-03T15:33:25.971Z,21.84
2019-05-03T15:35:55.880Z,21.78
2019-05-03T15:38:25.836Z,21.53
2019-05-03T15:40:55.762Z,21.33
2019-05-03T15:43:45.557Z,21.29
2019-05-03T15:46:20.086Z,21.19
2019-05-03T15:48:54.981Z,21.03
2019-05-03T15:51:24.760Z,20.88
2019-05-03T15:53:58.413Z,20.83
2019-05-03T15:56:28.416Z,20.68
2019-05-03T15:58:58.321Z,20.63
2019-05-03T16:01:28.284Z,20.55
2019-05-03T16:03:58.442Z,20.29
2019-05-03T16:06:28.353Z,20.09
2019-05-03T16:08:58.308Z,19.93
2019-05-03T16:11:28.329Z,19.65
2019-05-03T16:13:58.369Z,19.58
2019-05-03T16:16:28.323Z,19.43
2019-05-03T16:18:58.345Z,19.16
2019-05-03T16:21:28.781Z,18.91
2019-05-03T16:23:58.829Z,18.66
2019-05-03T16:26:28.858Z,18.51
2019-05-03T16:29:04.681Z,18.33
2019-05-03T16:31:34.792Z,18.20
2019-05-03T16:34:05.017Z,18.12
2019-05-03T16:36:36.854Z,18.14
2019-05-03T16:39:07.612Z,18.08
2019-05-03T16:41:39.097Z,18.03
2019-05-03T16:44:09.030Z,18.06
2019-05-03T16:46:38.998Z,17.98
2019-05-03T16:49:10.637Z,17.86
2019-05-03T16:51:40.602Z,17.75
2019-05-03T16:54:11.137Z,17.58
2019-05-03T16:56:41.959Z,17.68
2019-05-03T16:59:11.914Z,17.71
2019-05-03T17:01:41.866Z,17.69
2019-05-03T17:04:29.784Z,17.71
2019-05-03T17:07:08.625Z,17.61
2019-05-03T17:09:42.953Z,17.65
2019-05-03T17:12:28.125Z,17.54
2019-05-03T17:15:05.002Z,17.58
2019-05-03T17:17:34.657Z,17.57
2019-05-03T17:20:09.591Z,17.55
2019-05-03T17:22:39.844Z,17.34
2019-05-03T17:25:10.188Z,17.26
2019-05-03T17:27:40.215Z,17.18
2019-05-03T17:30:10.436Z,17.12
2019-05-03T17:32:40.493Z,16.99
2019-05-03T17:35:12.022Z,16.86
2019-05-03T17:37:41.945Z,16.80
2019-05-03T17:40:29.993Z,16.92
2019-05-03T17:43:10.711Z,16.81
2019-05-03T17:45:41.693Z,16.69
2019-05-03T17:48:11.492Z,16.65
2019-05-03T17:50:41.426Z,16.50
2019-05-03T17:53:15.930Z,16.50
2019-05-03T17:55:50.611Z,16.47
2019-05-03T17:58:31.180Z,16.52
2019-05-03T18:01:05.598Z,16.44
2019-05-03T18:03:38.825Z,16.44
2019-05-03T18:06:14.960Z,16.43
2019-05-03T18:08:55.714Z,16.38
2019-05-03T18:11:29.312Z,16.45
2019-05-03T18:13:59.133Z,16.34
2019-05-03T18:16:29.054Z,16.21
2019-05-03T18:18:59.090Z,16.19
2019-05-03T18:21:29.021Z,16.23
2019-05-03T18:23:58.972Z,16.05
2019-05-03T18:26:28.999Z,15.99
2019-05-03T18:28:59.337Z,15.90
2019-05-03T18:31:29.238Z,15.88
2019-05-03T18:34:00.759Z,15.72
2019-05-03T18:36:32.344Z,15.66
2019-05-03T18:39:02.459Z,15.66
2019-05-03T18:41:34.575Z,15.62
2019-05-03T18:44:15.754Z,15.57
2019-05-03T18:46:55.060Z,15.63
2019-05-03T18:49:26.244Z,15.44
2019-05-03T18:51:56.162Z,15.41
2019-05-03T18:54:26.204Z,15.30
2019-05-03T18:56:56.249Z,15.19
2019-05-03T18:59:27.714Z,15.07
2019-05-03T19:01:58.262Z,15.00
2019-05-03T19:04:34.251Z,14.97
2019-05-03T19:07:04.616Z,14.92
2019-05-03T19:09:40.862Z,14.88
2019-05-03T19:12:21.838Z,14.81
2019-05-03T19:14:51.865Z,14.97
2019-05-03T19:17:24.889Z,14.81
2019-05-03T19:19:56.444Z,14.76
2019-05-03T19:22:27.497Z,14.67
2019-05-03T19:24:57.527Z,14.72
2019-05-03T19:27:27.470Z,14.61
2019-05-03T19:29:57.393Z,14.58
2019-05-03T19:32:28.281Z,14.56
2019-05-03T19:34:59.524Z,14.51
2019-05-03T19:37:29.568Z,14.51
2019-05-03T19:39:59.489Z,14.46
2019-05-03T19:42:29.434Z,14.46
2019-05-03T19:44:59.327Z,14.39
2019-05-03T19:47:30.737Z,14.35
2019-05-03T19:50:00.696Z,14.26
2019-05-03T19:52:34.675Z,14.23
2019-05-03T19:55:05.248Z,14.17
2019-05-03T19:57:39.469Z,14.08
2019-05-03T20:00:09.912Z,14.07
2019-05-03T20:02:41.484Z,14.00
2019-05-03T20:05:29.013Z,13.97
2019-05-03T20:08:00.581Z,13.85
2019-05-03T20:10:31.950Z,13.81
2019-05-03T20:13:01.916Z,13.84
2019-05-03T20:15:31.844Z,13.86
2019-05-03T20:18:01.766Z,13.77
2019-05-03T20:20:31.694Z,13.87
2019-05-03T20:23:01.727Z,13.82
2019-05-03T20:25:31.661Z,13.82
2019-05-03T20:28:01.522Z,13.74
2019-05-03T20:30:31.435Z,13.85
2019-05-03T20:33:01.571Z,13.97
2019-05-03T20:35:31.611Z,14.12
2019-05-03T20:38:02.152Z,13.91
2019-05-03T20:40:35.799Z,13.82
2019-05-03T20:43:25.842Z,13.77
2019-05-03T20:45:57.419Z,13.84
2019-05-03T20:48:27.353Z,13.86
2019-05-03T20:50:57.289Z,13.91
2019-05-03T20:53:27.221Z,13.92
2019-05-03T20:55:57.166Z,13.97
2019-05-03T20:58:27.059Z,14.10
2019-05-03T21:00:57.038Z,13.86
2019-05-03T21:03:27.164Z,13.85
2019-05-03T21:05:57.104Z,13.65
2019-05-03T21:08:27.155Z,13.65
2019-05-03T21:10:57.070Z,13.54
2019-05-03T21:13:39.196Z,13.58
2019-05-03T21:16:15.236Z,13.74
2019-05-03T21:18:52.979Z,13.81
2019-05-03T21:21:30.575Z,13.76
2019-05-03T21:24:02.065Z,13.77
2019-05-03T21:26:32.080Z,13.67
2019-05-03T21:29:02.008Z,13.55
2019-05-03T21:31:31.946Z,13.48
2019-05-03T21:34:01.976Z,13.39
2019-05-03T21:36:31.912Z,13.38
2019-05-03T21:39:01.947Z,13.57
2019-05-03T21:41:35.213Z,13.53
2019-05-03T21:44:05.302Z,13.30
2019-05-03T21:46:39.750Z,13.19
2019-05-03T21:49:11.239Z,13.14
2019-05-03T21:51:41.153Z,13.17
2019-05-03T21:54:11.168Z,13.13
2019-05-03T21:56:41.223Z,13.07
2019-05-03T21:59:11.246Z,13.12
2019-05-03T22:01:42.713Z,13.05
2019-05-03T22:04:12.852Z,13.14
2019-05-03T22:06:44.425Z,13.11
2019-05-03T22:09:14.569Z,13.14
2019-05-03T22:11:44.741Z,13.10
2019-05-03T22:14:16.380Z,13.27
2019-05-03T22:16:47.954Z,13.57
2019-05-03T22:19:19.470Z,13.50
2019-05-03T22:22:05.470Z,13.53
2019-05-03T22:24:37.083Z,13.49
2019-05-03T22:27:08.493Z,13.37
2019-05-03T22:29:38.997Z,13.25
2019-05-03T22:32:09.030Z,13.18
2019-05-03T22:34:39.075Z,13.18
2019-05-03T22:37:09.110Z,13.17
2019-05-03T22:39:40.079Z,12.97
2019-05-03T22:42:10.000Z,12.92
2019-05-03T22:44:39.939Z,13.08
2019-05-03T22:47:10.077Z,13.16
2019-05-03T22:49:41.036Z,13.07
2019-05-03T22:52:10.969Z,13.03
2019-05-03T22:54:40.857Z,12.98
2019-05-03T22:57:10.851Z,12.87
2019-05-03T22:59:40.870Z,12.85
2019-05-03T23:02:10.810Z,12.82
2019-05-03T23:04:40.730Z,12.84
2019-05-03T23:07:10.691Z,12.84
2019-05-03T23:09:40.708Z,12.82
2019-05-03T23:12:12.154Z,12.82
2019-05-03T23:14:42.108Z,12.83
2019-05-03T23:17:12.070Z,12.91
2019-05-03T23:19:44.887Z,13.15
2019-05-03T23:22:25.329Z,13.10
2019-05-03T23:24:55.357Z,12.98
2019-05-03T23:27:25.293Z,12.95
2019-05-03T23:29:55.136Z,12.97
2019-05-03T23:32:25.177Z,12.96
2019-05-03T23:34:56.091Z,12.94
2019-05-03T23:37:25.965Z,12.95
2019-05-03T23:39:56.087Z,12.96
2019-05-03T23:42:26.027Z,12.97
2019-05-03T23:44:55.960Z,13.19
2019-05-03T23:47:30.163Z,13.29
2019-05-03T23:50:00.122Z,13.02
2019-05-03T23:52:35.282Z,12.87
2019-05-03T23:55:21.780Z,12.77
2019-05-03T23:57:51.711Z,12.76
